createdAt,value
2019-05-20T00:00:57.143Z,12
2019-05-20T00:05:59.725Z,13
2019-05-20T00:11:02.066Z,11
2019-05-20T00:16:04.496Z,12
2019-05-20T00:21:06.910Z,11
2019-05-20T00:26:09.378Z,12
2019-05-20T00:31:11.808Z,10
2019-05-20T00:36:14.297Z,13
2019-05-20T00:41:16.655Z,12
2019-05-20T00:46:19.130Z,11
2019-05-20T00:51:21.610Z,11
2019-05-20T00:56:23.986Z,13
2019-05-20T01:01:26.455Z,13
2019-05-20T01:11:31.290Z,12
2019-05-20T01:16:33.736Z,12
2019-05-20T01:21:36.190Z,16
2019-05-20T01:26:38.642Z,11
2019-05-20T01:31:41.082Z,13
2019-05-20T01:36:43.512Z,12
2019-05-20T01:41:45.939Z,12
2019-05-20T01:46:48.395Z,12
2019-05-20T01:51:50.817Z,13
2019-05-20T01:56:53.264Z,13
2019-05-20T02:01:55.696Z,14
2019-05-20T02:06:58.156Z,12
2019-05-20T02:12:00.573Z,15
2019-05-20T02:17:03.022Z,13
2019-05-20T02:22:05.478Z,15
2019-05-20T02:27:07.978Z,13
2019-05-20T02:32:10.348Z,13
2019-05-20T02:37:12.799Z,12
2019-05-20T02:42:15.236Z,13
2019-05-20T02:47:17.656Z,12
2019-05-20T02:52:20.172Z,14
2019-05-20T02:57:22.748Z,14
2019-05-20T03:02:25.011Z,13
2019-05-20T03:07:27.424Z,14
2019-05-20T03:12:29.891Z,16
2019-05-20T03:17:32.318Z,19
2019-05-20T03:22:34.759Z,15
2019-05-20T03:27:37.197Z,12
2019-05-20T03:32:39.647Z,17
2019-05-20T03:37:42.069Z,14
2019-05-20T03:42:44.516Z,14
2019-05-20T03:47:46.951Z,12
2019-05-20T03:52:49.418Z,12
2019-05-20T03:57:51.839Z,14
2019-05-20T04:02:54.283Z,13
2019-05-20T04:07:56.746Z,14
2019-05-20T04:12:59.153Z,19
2019-05-20T04:18:01.659Z,24
2019-05-20T04:23:04.026Z,16
2019-05-20T04:28:06.584Z,17
2019-05-20T04:33:08.962Z,18
2019-05-20T04:38:11.402Z,19
2019-05-20T04:43:13.926Z,18
2019-05-20T04:48:16.263Z,17
2019-05-20T04:53:18.724Z,18
2019-05-20T04:58:21.173Z,18
2019-05-20T05:03:23.681Z,17
2019-05-20T05:08:26.023Z,17
2019-05-20T05:13:28.521Z,23
2019-05-20T05:18:30.887Z,20
2019-05-20T05:23:33.336Z,19
2019-05-20T05:28:35.781Z,18
2019-05-20T05:33:38.358Z,20
2019-05-20T05:38:40.686Z,24
2019-05-20T05:43:43.175Z,21
2019-05-20T05:48:45.522Z,21
2019-05-20T05:53:47.982Z,19
2019-05-20T05:58:50.417Z,19
2019-05-20T06:03:52.858Z,26
2019-05-20T06:08:55.289Z,44
2019-05-20T06:13:57.794Z,20
2019-05-20T06:19:00.225Z,42
2019-05-20T06:24:02.619Z,30
2019-05-20T06:29:05.060Z,45
2019-05-20T06:34:07.526Z,20
2019-05-20T06:39:09.948Z,14
2019-05-20T06:44:12.417Z,15
2019-05-20T06:49:14.838Z,14
2019-05-20T06:54:17.307Z,16
2019-05-20T06:59:19.723Z,20
2019-05-20T07:04:22.159Z,16
2019-05-20T07:09:24.597Z,22
2019-05-20T07:19:29.488Z,20
2019-05-20T07:24:31.896Z,19
2019-05-20T07:29:34.617Z,17
2019-05-20T07:34:36.894Z,16
2019-05-20T07:39:39.213Z,18
2019-05-20T07:44:41.662Z,14
2019-05-20T07:49:44.113Z,15
2019-05-20T07:54:46.555Z,14
2019-05-20T07:59:48.980Z,17
2019-05-20T08:04:51.505Z,18
2019-05-20T08:09:53.879Z,15
2019-05-20T08:14:56.313Z,16
2019-05-20T08:19:58.739Z,16
2019-05-20T08:25:01.202Z,17
2019-05-20T08:30:03.827Z,15
2019-05-20T08:35:06.237Z,15
2019-05-20T08:40:08.522Z,14
2019-05-20T08:45:10.979Z,13
2019-05-20T08:50:16.049Z,16
2019-05-20T08:55:15.912Z,13
2019-05-20T09:00:23.183Z,15
2019-05-20T09:05:20.718Z,19
2019-05-20T09:10:23.180Z,18
2019-05-20T09:15:25.663Z,14
2019-05-20T09:20:28.051Z,15
2019-05-20T09:25:30.491Z,15
2019-05-20T09:30:32.928Z,15
2019-05-20T09:35:35.370Z,16
2019-05-20T09:40:37.838Z,18
2019-05-20T09:45:40.282Z,17
2019-05-20T09:50:42.687Z,18
2019-05-20T09:55:45.211Z,17
2019-05-20T10:00:47.612Z,17
2019-05-20T10:05:50.058Z,18
2019-05-20T10:10:52.465Z,19
2019-05-20T10:15:54.887Z,21
2019-05-20T10:20:57.454Z,18
2019-05-20T10:25:59.793Z,23
2019-05-20T10:31:02.271Z,20
2019-05-20T10:36:04.673Z,19
2019-05-20T10:41:07.089Z,21
2019-05-20T10:46:09.529Z,19
2019-05-20T10:51:12.048Z,20
2019-05-20T10:56:14.681Z,24
2019-05-20T11:01:16.904Z,25
2019-05-20T11:06:19.309Z,21
2019-05-20T11:11:21.792Z,22
2019-05-20T11:16:24.182Z,24
2019-05-20T11:21:26.624Z,22
2019-05-20T11:26:29.067Z,31
2019-05-20T11:31:31.506Z,27
2019-05-20T11:36:33.928Z,30
2019-05-20T11:41:53.626Z,28
2019-05-20T11:46:38.916Z,21
2019-05-20T11:51:41.272Z,22
2019-05-20T11:56:43.727Z,24
2019-05-20T12:01:46.147Z,27
2019-05-20T12:06:48.664Z,28
2019-05-20T12:11:51.176Z,26
2019-05-20T12:16:53.463Z,25
2019-05-20T12:21:55.914Z,25
2019-05-20T12:26:58.409Z,26
2019-05-20T12:32:03.416Z,28
2019-05-20T12:37:03.261Z,30
2019-05-20T12:42:05.681Z,29
2019-05-20T12:47:08.379Z,29
2019-05-20T12:52:10.625Z,30
2019-05-20T12:57:13.022Z,31
2019-05-20T13:02:17.355Z,29
2019-05-20T13:07:17.874Z,30
2019-05-20T13:12:20.318Z,32
2019-05-20T13:17:22.846Z,29
2019-05-20T13:22:25.194Z,27
2019-05-20T13:27:27.645Z,30
2019-05-20T13:32:30.082Z,28
2019-05-20T13:37:32.567Z,33
2019-05-20T13:42:34.965Z,35
2019-05-20T13:47:37.396Z,30
2019-05-20T13:52:39.847Z,30
2019-05-20T13:57:42.346Z,35
2019-05-20T14:02:44.843Z,32
2019-05-20T14:07:47.186Z,28
2019-05-20T14:12:49.708Z,29
2019-05-20T14:17:52.196Z,30
2019-05-20T14:22:54.548Z,33
2019-05-20T14:27:56.960Z,31
2019-05-20T14:32:59.398Z,29
2019-05-20T14:43:04.251Z,8
2019-05-20T14:48:07.040Z,7
2019-05-20T14:53:09.183Z,4
2019-05-20T14:58:11.576Z,5
2019-05-20T15:03:14.028Z,2
2019-05-20T15:08:16.449Z,2
2019-05-20T15:13:18.944Z,2
2019-05-20T15:18:21.355Z,4
2019-05-20T15:23:23.858Z,3
2019-05-20T15:28:26.254Z,5
2019-05-20T15:33:28.720Z,4
2019-05-20T15:38:31.115Z,4
2019-05-20T15:43:33.563Z,4
2019-05-20T15:48:36.041Z,3
2019-05-20T15:53:38.409Z,3
2019-05-20T15:58:40.861Z,3
2019-05-20T16:03:43.292Z,2
2019-05-20T16:08:45.794Z,2
2019-05-20T16:13:48.191Z,1
2019-05-20T16:18:50.626Z,2
2019-05-20T16:23:53.100Z,2
2019-05-20T16:28:55.513Z,3
2019-05-20T16:33:59.560Z,2
2019-05-20T16:39:00.438Z,1
2019-05-20T16:44:02.878Z,2
2019-05-20T16:49:05.362Z,1
2019-05-20T16:54:07.763Z,1
2019-05-20T16:59:10.161Z,0
2019-05-20T17:04:12.600Z,2
2019-05-20T17:09:15.022Z,1
2019-05-20T17:14:17.500Z,1
2019-05-20T17:19:19.931Z,1
2019-05-20T17:24:23.302Z,1
2019-05-20T17:29:24.837Z,1
2019-05-20T17:34:27.238Z,2
2019-05-20T17:39:29.691Z,2
2019-05-20T17:44:32.253Z,2
2019-05-20T17:49:34.578Z,2
2019-05-20T17:54:37.010Z,1
2019-05-20T17:59:39.450Z,3
2019-05-20T18:04:41.877Z,1
2019-05-20T18:09:44.441Z,3
2019-05-20T18:14:46.817Z,4
2019-05-20T18:19:49.300Z,2
2019-05-20T18:24:51.767Z,2
2019-05-20T18:29:54.384Z,2
2019-05-20T18:34:56.560Z,3
2019-05-20T18:40:12.702Z,4
2019-05-20T18:45:01.448Z,2
2019-05-20T18:50:03.866Z,2
2019-05-20T18:55:06.306Z,4
2019-05-20T19:00:08.735Z,3
2019-05-20T19:05:11.182Z,4
2019-05-20T19:10:13.710Z,3
2019-05-20T19:15:16.063Z,3
2019-05-20T19:20:18.487Z,3
2019-05-20T19:25:20.948Z,4
2019-05-20T19:30:23.460Z,4
2019-05-20T19:35:26.464Z,4
2019-05-20T19:40:28.347Z,4
2019-05-20T19:45:30.731Z,4
2019-05-20T19:50:33.142Z,4
2019-05-20T19:55:35.597Z,6
2019-05-20T20:00:38.032Z,4
2019-05-20T20:05:40.478Z,5
2019-05-20T20:10:42.902Z,4
2019-05-20T20:15:45.353Z,5
2019-05-20T20:20:48.102Z,5
2019-05-20T20:25:50.269Z,5
2019-05-20T20:30:52.733Z,6
2019-05-20T20:35:55.093Z,6
2019-05-20T20:40:57.538Z,6
2019-05-20T20:45:59.972Z,7
2019-05-20T20:51:02.458Z,6
2019-05-20T20:56:04.868Z,7
2019-05-20T21:01:07.298Z,7
2019-05-20T21:06:09.736Z,9
2019-05-20T21:11:12.176Z,11
2019-05-20T21:16:14.629Z,12
2019-05-20T21:21:17.233Z,11
2019-05-20T21:26:19.502Z,11
2019-05-20T21:31:21.934Z,11
2019-05-20T21:36:24.373Z,13
2019-05-20T21:41:26.862Z,11
2019-05-20T21:46:29.266Z,10
2019-05-20T21:51:31.711Z,11
2019-05-20T21:56:34.145Z,11
2019-05-20T22:01:36.633Z,12
2019-05-20T22:06:39.309Z,10
2019-05-20T22:11:41.468Z,14
2019-05-20T22:16:43.933Z,18
2019-05-20T22:21:46.364Z,15
2019-05-20T22:26:48.795Z,18
2019-05-20T22:31:51.242Z,20
2019-05-20T22:36:53.699Z,24
2019-05-20T22:41:56.102Z,23
2019-05-20T22:46:58.545Z,21
2019-05-20T22:52:01.050Z,21
2019-05-20T22:57:03.458Z,22
2019-05-20T23:02:05.927Z,22
2019-05-20T23:07:08.360Z,18
2019-05-20T23:12:10.997Z,19
2019-05-20T23:17:13.201Z,19
2019-05-20T23:22:15.664Z,20
2019-05-20T23:27:18.088Z,19
2019-05-20T23:32:20.528Z,22
2019-05-20T23:37:22.993Z,21
2019-05-20T23:42:25.417Z,21
2019-05-20T23:47:27.835Z,20
2019-05-20T23:52:30.268Z,25
2019-05-20T23:57:32.735Z,20
